createdAt,value
2018-01-11T00:00:19.515Z,24.77
2018-01-11T00:02:46.968Z,23.53
2018-01-11T00:05:14.428Z,23.40
2018-01-11T00:07:41.899Z,23.60
2018-01-11T00:10:09.354Z,23.07
2018-01-11T00:12:36.848Z,25.53
2018-01-11T00:15:04.323Z,21.30
2018-01-11T00:17:31.795Z,23.47
2018-01-11T00:19:59.248Z,29.70
2018-01-11T00:22:26.728Z,22.23
2018-01-11T00:24:54.176Z,22.10
2018-01-11T00:27:21.634Z,24.80
2018-01-11T00:29:49.102Z,28.40
2018-01-11T00:32:16.583Z,25.53
2018-01-11T00:34:44.797Z,29.37
2018-01-11T00:37:12.266Z,31.90
2018-01-11T00:39:39.726Z,25.87
2018-01-11T00:42:07.268Z,31.07
2018-01-11T00:44:34.743Z,31.10
2018-01-11T00:47:02.207Z,29.70
2018-01-11T00:49:30.434Z,25.30
2018-01-11T00:51:57.913Z,25.30
2018-01-11T00:54:25.356Z,29.47
2018-01-11T00:56:52.819Z,28.17
2018-01-11T00:59:20.275Z,26.93
2018-01-11T01:01:47.742Z,25.90
2018-01-11T01:04:15.206Z,23.83
2018-01-11T01:06:42.682Z,24.07
2018-01-11T01:09:10.146Z,27.67
2018-01-11T01:11:37.595Z,24.73
2018-01-11T01:14:05.071Z,23.67
2018-01-11T01:16:32.522Z,24.50
2018-01-11T01:18:59.978Z,26.10
2018-01-11T01:21:27.448Z,23.87
2018-01-11T01:23:54.915Z,25.13
2018-01-11T01:26:23.143Z,24.73
2018-01-11T01:28:50.614Z,23.70
2018-01-11T01:31:18.094Z,24.53
2018-01-11T01:33:46.317Z,23.67
2018-01-11T01:36:13.790Z,27.77
2018-01-11T01:38:41.259Z,26.57
2018-01-11T01:41:08.719Z,20.63
2018-01-11T01:43:36.184Z,23.53
2018-01-11T01:46:03.648Z,27.83
2018-01-11T01:48:43.035Z,31.30
2018-01-11T01:51:10.495Z,28.97
2018-01-11T01:53:37.951Z,33.40
2018-01-11T01:56:05.417Z,27.90
2018-01-11T01:58:32.862Z,30.67
2018-01-11T02:01:00.323Z,25.10
2018-01-11T02:03:27.782Z,24.00
2018-01-11T02:05:55.235Z,25.50
2018-01-11T02:08:22.690Z,29.03
2018-01-11T02:10:50.168Z,26.67
2018-01-11T02:13:17.622Z,23.20
2018-01-11T02:15:45.092Z,27.83
2018-01-11T02:18:12.557Z,20.17
2018-01-11T02:20:40.023Z,22.30
2018-01-11T02:23:07.479Z,19.43
2018-01-11T02:25:34.954Z,17.60
2018-01-11T02:28:03.182Z,18.10
2018-01-11T02:30:30.641Z,17.00
2018-01-11T02:32:58.105Z,19.70
2018-01-11T02:35:26.403Z,16.83
2018-01-11T02:37:54.646Z,16.40
2018-01-11T02:40:22.110Z,17.77
2018-01-11T02:42:49.566Z,16.63
2018-01-11T02:45:17.079Z,16.93
2018-01-11T02:47:44.547Z,15.43
2018-01-11T02:50:11.998Z,19.77
2018-01-11T02:52:39.460Z,19.90
2018-01-11T02:55:06.922Z,18.40
2018-01-11T02:57:34.417Z,20.50
2018-01-11T03:00:01.874Z,19.07
2018-01-11T03:02:29.346Z,20.37
2018-01-11T03:04:57.570Z,16.33
2018-01-11T03:07:25.032Z,17.23
2018-01-11T03:09:52.506Z,18.23
2018-01-11T03:12:19.962Z,17.83
2018-01-11T03:14:47.421Z,21.97
2018-01-11T03:17:14.907Z,16.20
2018-01-11T03:19:43.126Z,14.53
2018-01-11T03:22:10.579Z,17.03
2018-01-11T03:24:38.042Z,15.80
2018-01-11T03:27:05.498Z,14.60
2018-01-11T03:29:32.975Z,28.20
2018-01-11T03:32:00.430Z,19.93
2018-01-11T03:34:28.673Z,14.00
2018-01-11T03:36:56.118Z,14.83
2018-01-11T03:39:23.594Z,22.17
2018-01-11T03:41:51.067Z,12.73
2018-01-11T03:44:18.551Z,15.37
2018-01-11T03:46:46.018Z,13.10
2018-01-11T03:49:13.490Z,21.57
2018-01-11T03:51:41.719Z,13.83
2018-01-11T03:54:09.199Z,13.33
2018-01-11T03:56:36.684Z,13.30
2018-01-11T03:59:04.910Z,12.90
2018-01-11T04:01:32.410Z,12.03
2018-01-11T04:04:00.645Z,12.57
2018-01-11T04:06:28.107Z,16.87
2018-01-11T04:08:55.828Z,19.33
2018-01-11T04:11:23.307Z,13.87
2018-01-11T04:13:50.776Z,12.43
2018-01-11T04:16:18.236Z,13.67
2018-01-11T04:18:45.699Z,13.53
2018-01-11T04:21:13.167Z,12.13
2018-01-11T04:23:40.634Z,11.57
2018-01-11T04:26:08.866Z,12.67
2018-01-11T04:28:36.337Z,11.00
2018-01-11T04:31:03.791Z,10.90
2018-01-11T04:33:31.253Z,11.53
2018-01-11T04:35:58.707Z,13.07
2018-01-11T04:38:26.177Z,12.40
2018-01-11T04:40:53.647Z,11.33
2018-01-11T04:43:21.111Z,11.43
2018-01-11T04:45:49.350Z,12.73
2018-01-11T04:48:16.859Z,11.40
2018-01-11T04:50:44.331Z,11.57
2018-01-11T04:53:11.794Z,12.53
2018-01-11T04:55:39.267Z,12.50
2018-01-11T04:58:06.722Z,12.30
2018-01-11T05:00:39.871Z,14.90
2018-01-11T05:03:08.119Z,12.03
2018-01-11T05:08:09.594Z,12.10
2018-01-11T05:10:37.059Z,13.60
2018-01-11T05:13:05.282Z,13.27
2018-01-11T05:15:32.746Z,11.67
2018-01-11T05:18:00.199Z,12.40
2018-01-11T05:20:27.660Z,13.97
2018-01-11T05:22:55.127Z,13.97
2018-01-11T05:25:22.582Z,15.00
2018-01-11T05:27:50.047Z,13.63
2018-01-11T05:30:17.533Z,13.50
2018-01-11T05:32:45.778Z,14.80
2018-01-11T05:35:13.270Z,16.77
2018-01-11T05:37:40.734Z,15.40
2018-01-11T05:40:08.191Z,14.63
2018-01-11T05:42:36.414Z,28.70
2018-01-11T05:45:04.647Z,13.83
2018-01-11T05:47:32.107Z,14.50
2018-01-11T05:49:59.558Z,13.83
2018-01-11T05:52:27.039Z,14.00
2018-01-11T05:54:54.510Z,14.20
2018-01-11T05:57:21.982Z,22.57
2018-01-11T05:59:49.476Z,33.43
2018-01-11T06:02:17.707Z,23.13
2018-01-11T06:04:45.162Z,18.03
2018-01-11T06:07:12.638Z,19.57
2018-01-11T06:09:40.095Z,15.20
2018-01-11T06:12:07.546Z,15.07
2018-01-11T06:14:35.015Z,14.27
2018-01-11T06:17:02.474Z,14.50
2018-01-11T06:19:29.930Z,16.17
2018-01-11T06:21:57.437Z,21.00
2018-01-11T06:24:24.914Z,16.17
2018-01-11T06:26:52.376Z,17.30
2018-01-11T06:29:20.618Z,15.73
2018-01-11T06:31:48.078Z,16.97
2018-01-11T06:34:15.539Z,20.10
2018-01-11T06:36:43.001Z,17.50
2018-01-11T06:39:10.460Z,17.97
2018-01-11T06:41:37.915Z,17.07
2018-01-11T06:44:05.398Z,18.40
2018-01-11T06:46:32.875Z,16.47
2018-01-11T06:49:00.325Z,17.90
2018-01-11T06:51:27.807Z,18.67
2018-01-11T06:53:56.038Z,18.90
2018-01-11T06:56:23.502Z,20.90
2018-01-11T06:58:51.099Z,18.20
2018-01-11T07:01:19.321Z,19.33
2018-01-11T07:03:46.783Z,18.13
2018-01-11T07:06:14.250Z,18.80
2018-01-11T07:08:41.714Z,19.70
2018-01-11T07:11:09.176Z,17.70
2018-01-11T07:13:36.666Z,17.93
2018-01-11T07:16:04.127Z,17.70
2018-01-11T07:18:31.574Z,17.57
2018-01-11T07:20:59.058Z,19.23
2018-01-11T07:23:26.514Z,23.03
2018-01-11T07:25:53.979Z,21.07
2018-01-11T07:28:21.454Z,23.90
2018-01-11T07:30:48.995Z,22.60
2018-01-11T07:33:16.442Z,23.03
2018-01-11T07:35:43.994Z,21.87
2018-01-11T07:38:11.468Z,22.40
2018-01-11T07:40:38.935Z,24.60
2018-01-11T07:43:06.418Z,21.70
2018-01-11T07:45:33.863Z,19.67
2018-01-11T07:48:01.323Z,19.27
2018-01-11T07:50:28.796Z,23.53
2018-01-11T07:52:57.026Z,20.80
2018-01-11T07:55:24.535Z,23.97
2018-01-11T07:57:52.035Z,24.53
2018-01-11T08:00:19.495Z,23.30
2018-01-11T08:02:46.963Z,26.83
2018-01-11T08:05:14.430Z,25.10
2018-01-11T08:07:41.894Z,25.30
2018-01-11T08:10:09.352Z,24.57
2018-01-11T08:12:36.848Z,26.17
2018-01-11T08:15:04.300Z,26.77
2018-01-11T08:17:31.754Z,23.00
2018-01-11T08:19:59.986Z,28.17
2018-01-11T08:22:27.451Z,26.70
2018-01-11T08:24:54.926Z,25.80
2018-01-11T08:27:23.159Z,28.80
2018-01-11T08:29:50.630Z,26.37
2018-01-11T08:32:18.119Z,29.67
2018-01-11T08:34:46.358Z,29.33
2018-01-11T08:37:13.810Z,29.27
2018-01-11T08:39:41.279Z,29.17
2018-01-11T08:42:08.746Z,27.83
2018-01-11T08:44:36.210Z,31.60
2018-01-11T08:47:03.668Z,27.30
2018-01-11T08:49:31.154Z,33.73
2018-01-11T08:51:58.665Z,30.87
2018-01-11T08:54:26.123Z,33.43
2018-01-11T08:56:53.623Z,30.00
2018-01-11T08:59:21.842Z,32.10
2018-01-11T09:01:49.302Z,31.00
2018-01-11T09:04:16.783Z,31.77
2018-01-11T09:06:44.239Z,33.33
2018-01-11T09:09:11.711Z,34.57
2018-01-11T09:11:39.971Z,34.87
2018-01-11T09:14:07.431Z,36.77
2018-01-11T09:16:34.902Z,35.80
2018-01-11T09:19:03.157Z,35.90
2018-01-11T09:21:30.613Z,34.97
2018-01-11T09:23:58.066Z,38.70
2018-01-11T09:26:25.530Z,36.23
2018-01-11T09:28:52.985Z,33.73
2018-01-11T09:31:20.465Z,32.50
2018-01-11T09:33:48.769Z,35.60
2018-01-11T09:36:16.210Z,35.30
2018-01-11T09:38:43.667Z,38.20
2018-01-11T09:41:11.144Z,36.40
2018-01-11T09:43:38.603Z,36.67
2018-01-11T09:46:06.059Z,36.43
2018-01-11T09:48:33.530Z,34.77
2018-01-11T09:51:00.991Z,37.23
2018-01-11T09:53:28.451Z,38.90
2018-01-11T09:55:55.922Z,39.87
2018-01-11T09:58:23.387Z,38.97
2018-01-11T10:00:50.839Z,34.27
2018-01-11T10:03:18.311Z,39.73
2018-01-11T10:05:46.534Z,39.30
2018-01-11T10:08:14.004Z,37.47
2018-01-11T10:10:41.462Z,37.50
2018-01-11T10:13:08.919Z,40.57
2018-01-11T10:15:36.391Z,39.40
2018-01-11T10:18:03.846Z,38.87
2018-01-11T10:20:31.306Z,38.67
2018-01-11T10:22:58.770Z,38.90
2018-01-11T10:25:26.236Z,36.30
2018-01-11T10:27:54.504Z,37.70
2018-01-11T10:30:22.037Z,36.80
2018-01-11T10:32:50.195Z,37.57
2018-01-11T10:35:17.651Z,38.00
2018-01-11T10:37:45.115Z,36.70
2018-01-11T10:40:12.579Z,36.37
2018-01-11T10:42:40.030Z,38.17
2018-01-11T10:45:07.503Z,37.83
2018-01-11T10:47:34.950Z,37.00
2018-01-11T10:50:02.416Z,38.70
2018-01-11T10:52:29.878Z,37.60
2018-01-11T10:54:57.342Z,35.57
2018-01-11T10:57:24.797Z,36.60
2018-01-11T10:59:52.269Z,39.00
2018-01-11T11:02:26.232Z,37.97
2018-01-11T11:04:53.703Z,39.43
2018-01-11T11:07:21.165Z,36.50
2018-01-11T11:09:48.619Z,38.63
2018-01-11T11:12:16.091Z,40.33
2018-01-11T11:14:43.613Z,38.83
2018-01-11T11:17:11.130Z,38.23
2018-01-11T11:19:39.363Z,38.90
2018-01-11T11:22:06.819Z,39.50
2018-01-11T11:24:34.280Z,40.90
2018-01-11T11:27:01.754Z,36.30
2018-01-11T11:29:29.206Z,38.70
2018-01-11T11:31:56.675Z,35.40
2018-01-11T11:34:24.911Z,40.47
2018-01-11T11:36:52.377Z,37.97
2018-01-11T11:39:19.832Z,37.87
2018-01-11T11:41:47.306Z,40.80
2018-01-11T11:44:14.771Z,39.50
2018-01-11T11:46:42.227Z,41.60
2018-01-11T11:49:09.699Z,42.37
2018-01-11T11:51:37.922Z,41.53
2018-01-11T11:54:05.378Z,37.30
2018-01-11T11:56:32.846Z,41.43
2018-01-11T11:59:00.310Z,41.87
2018-01-11T12:01:27.764Z,39.97
2018-01-11T12:03:55.238Z,40.27
2018-01-11T12:06:22.694Z,41.77
2018-01-11T12:08:50.151Z,40.83
2018-01-11T12:11:17.626Z,43.00
2018-01-11T12:13:45.851Z,43.63
2018-01-11T12:16:13.307Z,39.30
2018-01-11T12:18:40.784Z,42.03
2018-01-11T12:21:08.255Z,37.93
2018-01-11T12:23:35.699Z,39.80
2018-01-11T12:26:03.181Z,40.73
2018-01-11T12:28:31.398Z,41.00
2018-01-11T12:30:58.855Z,43.37
2018-01-11T12:33:26.334Z,40.50
2018-01-11T12:35:53.790Z,43.37
2018-01-11T12:38:21.243Z,42.47
2018-01-11T12:40:48.720Z,44.00
2018-01-11T12:43:16.189Z,41.63
2018-01-11T12:45:43.640Z,42.30
2018-01-11T12:48:11.108Z,44.90
2018-01-11T12:50:39.374Z,41.97
2018-01-11T12:53:06.837Z,43.07
2018-01-11T12:55:34.302Z,43.03
2018-01-11T12:58:02.528Z,44.30
2018-01-11T13:00:29.982Z,43.80
2018-01-11T13:02:57.456Z,44.33
2018-01-11T13:05:24.904Z,41.87
2018-01-11T13:07:52.364Z,43.50
2018-01-11T13:10:19.843Z,41.27
2018-01-11T13:12:47.299Z,42.43
2018-01-11T13:15:14.766Z,43.30
2018-01-11T13:17:43.000Z,43.73
2018-01-11T13:20:10.463Z,39.90
2018-01-11T13:22:37.927Z,45.33
2018-01-11T13:25:05.402Z,43.30
2018-01-11T13:27:32.857Z,41.23
2018-01-11T13:30:00.314Z,45.40
2018-01-11T13:32:27.803Z,41.00
2018-01-11T13:34:56.004Z,42.17
2018-01-11T13:37:23.474Z,42.53
2018-01-11T13:39:50.950Z,44.57
2018-01-11T13:42:18.409Z,42.67
2018-01-11T13:44:45.866Z,42.33
2018-01-11T13:47:13.343Z,41.90
2018-01-11T13:49:41.566Z,43.97
2018-01-11T13:52:09.015Z,45.20
2018-01-11T13:54:36.510Z,44.13
2018-01-11T13:57:03.967Z,43.80
2018-01-11T13:59:31.419Z,43.73
2018-01-11T14:01:58.899Z,38.00
2018-01-11T14:04:27.121Z,40.60
2018-01-11T14:06:54.600Z,40.40
2018-01-11T14:09:22.071Z,41.83
2018-01-11T14:11:49.527Z,42.93
2018-01-11T14:14:16.983Z,38.40
2018-01-11T14:16:44.450Z,41.20
2018-01-11T14:19:12.690Z,42.93
2018-01-11T14:21:40.136Z,41.53
2018-01-11T14:24:07.609Z,38.80
2018-01-11T14:26:35.066Z,42.03
2018-01-11T14:29:02.525Z,44.33
2018-01-11T14:31:29.999Z,43.90
2018-01-11T14:33:57.565Z,42.70
2018-01-11T14:36:25.018Z,44.57
2018-01-11T14:38:52.498Z,42.37
2018-01-11T14:41:20.719Z,46.00
2018-01-11T14:43:48.255Z,42.27
2018-01-11T14:46:15.719Z,41.40
2018-01-11T14:48:43.180Z,45.60
2018-01-11T14:51:10.634Z,43.40
2018-01-11T14:53:38.113Z,43.83
2018-01-11T14:56:05.575Z,43.23
2018-01-11T14:58:33.043Z,40.70
2018-01-11T15:01:00.510Z,40.23
2018-01-11T15:03:27.979Z,39.50
2018-01-11T15:05:56.215Z,39.30
2018-01-11T15:08:23.678Z,39.93
2018-01-11T15:10:51.131Z,38.30
2018-01-11T15:13:18.607Z,38.37
2018-01-11T15:15:46.087Z,37.33
2018-01-11T15:18:14.320Z,37.17
2018-01-11T15:20:41.780Z,36.40
2018-01-11T15:23:09.242Z,38.53
2018-01-11T15:25:36.711Z,41.27
2018-01-11T15:28:04.168Z,37.80
2018-01-11T15:30:31.626Z,35.30
2018-01-11T15:32:59.854Z,36.47
2018-01-11T15:35:27.330Z,36.70
2018-01-11T15:37:54.807Z,35.03
2018-01-11T15:40:22.273Z,33.47
2018-01-11T15:42:49.730Z,37.30
2018-01-11T15:45:17.962Z,35.67
2018-01-11T15:47:46.190Z,34.93
2018-01-11T15:50:14.426Z,34.77
2018-01-11T15:52:41.884Z,33.77
2018-01-11T15:55:09.355Z,34.27
2018-01-11T15:57:36.818Z,33.53
2018-01-11T16:00:04.276Z,35.40
2018-01-11T16:02:31.753Z,35.03
2018-01-11T16:04:59.974Z,34.47
2018-01-11T16:07:27.442Z,35.97
2018-01-11T16:09:54.923Z,34.73
2018-01-11T16:12:22.395Z,31.87
2018-01-11T16:14:50.638Z,37.97
2018-01-11T16:17:18.095Z,37.03
2018-01-11T16:19:45.566Z,34.50
2018-01-11T16:22:13.043Z,34.60
2018-01-11T16:24:41.278Z,36.13
2018-01-11T16:27:08.746Z,33.70
2018-01-11T16:29:36.213Z,34.23
2018-01-11T16:32:03.674Z,34.43
2018-01-11T16:34:31.143Z,33.70
2018-01-11T16:36:59.377Z,36.57
2018-01-11T16:39:26.851Z,34.97
2018-01-11T16:41:54.310Z,40.20
2018-01-11T16:44:21.782Z,34.13
2018-01-11T16:46:50.006Z,30.67
2018-01-11T16:49:17.467Z,32.00
2018-01-11T16:51:44.953Z,32.80
2018-01-11T16:54:12.406Z,31.37
2018-01-11T16:56:39.862Z,32.17
2018-01-11T16:59:07.343Z,34.20
2018-01-11T17:01:35.563Z,37.22
2018-01-11T17:04:03.029Z,36.00
2018-01-11T17:06:30.507Z,33.47
2018-01-11T17:08:57.970Z,37.17
2018-01-11T17:11:25.449Z,40.13
2018-01-11T17:13:53.686Z,39.93
2018-01-11T17:16:21.151Z,39.43
2018-01-11T17:18:48.610Z,36.20
2018-01-11T17:21:16.087Z,41.93
2018-01-11T17:23:44.342Z,41.70
2018-01-11T17:26:11.799Z,42.17
2018-01-11T17:28:39.269Z,39.47
2018-01-11T17:31:07.493Z,39.90
2018-01-11T17:33:34.983Z,40.10
2018-01-11T17:36:02.553Z,38.80
2018-01-11T17:38:30.015Z,39.70
2018-01-11T17:40:57.470Z,38.13
2018-01-11T17:43:24.934Z,39.47
2018-01-11T17:45:53.174Z,37.70
2018-01-11T17:48:20.630Z,35.40
2018-01-11T17:50:48.112Z,38.00
2018-01-11T17:53:15.572Z,36.13
2018-01-11T17:55:43.027Z,33.90
2018-01-11T17:58:10.492Z,36.67
2018-01-11T18:00:38.718Z,36.40
2018-01-11T18:03:06.180Z,36.90
2018-01-11T18:05:34.422Z,38.77
2018-01-11T18:08:01.894Z,40.43
2018-01-11T18:10:29.381Z,41.30
2018-01-11T18:12:56.866Z,38.67
2018-01-11T18:15:24.319Z,37.13
2018-01-11T18:17:51.776Z,40.03
2018-01-11T18:20:19.238Z,34.27
2018-01-11T18:22:47.458Z,37.60
2018-01-11T18:25:14.939Z,38.50
2018-01-11T18:27:42.410Z,38.97
2018-01-11T18:30:09.867Z,39.17
2018-01-11T18:32:37.350Z,40.37
2018-01-11T18:35:05.587Z,35.73
2018-01-11T18:37:33.088Z,35.83
2018-01-11T18:40:01.336Z,40.37
2018-01-11T18:42:28.787Z,40.33
2018-01-11T18:44:56.289Z,43.07
2018-01-11T18:47:23.763Z,42.03
2018-01-11T18:49:51.219Z,41.33
2018-01-11T18:52:18.699Z,42.00
2018-01-11T18:54:46.162Z,43.57
2018-01-11T18:57:13.615Z,41.10
2018-01-11T18:59:41.086Z,38.60
2018-01-11T19:02:08.543Z,38.97
2018-01-11T19:04:36.023Z,40.17
2018-01-11T19:07:03.520Z,39.67
2018-01-11T19:09:30.980Z,39.83
2018-01-11T19:11:58.430Z,38.27
2018-01-11T19:14:25.912Z,39.37
2018-01-11T19:16:53.367Z,36.87
2018-01-11T19:19:20.835Z,39.93
2018-01-11T19:21:48.315Z,39.03
2018-01-11T19:24:16.568Z,34.63
2018-01-11T19:26:44.028Z,40.83
2018-01-11T19:29:11.500Z,39.37
2018-01-11T19:31:38.975Z,36.63
2018-01-11T19:34:06.435Z,37.90
2018-01-11T19:36:34.839Z,35.57
2018-01-11T19:39:02.321Z,39.43
2018-01-11T19:41:29.813Z,37.97
2018-01-11T19:43:57.266Z,40.03
2018-01-11T19:46:25.507Z,39.10
2018-01-11T19:48:53.058Z,36.90
2018-01-11T19:51:21.942Z,37.97
2018-01-11T19:53:49.445Z,38.67
2018-01-11T19:56:17.954Z,37.37
2018-01-11T19:58:46.320Z,37.03
2018-01-11T20:01:13.906Z,37.60
2018-01-11T20:03:44.246Z,36.90
2018-01-11T20:06:13.419Z,39.83
2018-01-11T20:08:41.105Z,39.50
2018-01-11T20:11:09.218Z,40.27
2018-01-11T20:13:36.919Z,38.17
2018-01-11T20:16:04.373Z,38.97
2018-01-11T20:18:31.843Z,40.03
2018-01-11T20:20:59.302Z,39.50
2018-01-11T20:23:26.762Z,38.10
2018-01-11T20:25:54.236Z,38.40
2018-01-11T20:28:21.687Z,44.60
2018-01-11T20:30:49.216Z,38.33
2018-01-11T20:33:16.717Z,41.47
2018-01-11T20:35:44.180Z,43.67
2018-01-11T20:38:11.650Z,46.13
2018-01-11T20:40:39.883Z,37.17
2018-01-11T20:43:08.120Z,42.40
2018-01-11T20:45:35.618Z,39.10
2018-01-11T20:48:04.086Z,42.10
2018-01-11T20:50:31.566Z,42.77
2018-01-11T20:52:59.043Z,39.87
2018-01-11T20:55:26.505Z,43.73
2018-01-11T20:57:53.966Z,39.87
2018-01-11T21:00:22.206Z,39.10
2018-01-11T21:02:49.670Z,42.47
2018-01-11T21:05:17.147Z,42.27
2018-01-11T21:07:44.716Z,42.17
2018-01-11T21:10:12.983Z,46.97
2018-01-11T21:12:40.488Z,43.10
2018-01-11T21:15:08.043Z,45.53
2018-01-11T21:17:35.523Z,47.00
2018-01-11T21:20:02.989Z,46.30
2018-01-11T21:22:30.751Z,49.30
2018-01-11T21:24:58.224Z,45.10
2018-01-11T21:27:25.678Z,46.57
2018-01-11T21:29:53.162Z,46.67
2018-01-11T21:32:21.398Z,48.53
2018-01-11T21:34:48.852Z,42.90
2018-01-11T21:37:16.331Z,50.00
2018-01-11T21:39:43.790Z,47.63
2018-01-11T21:42:11.280Z,45.63
2018-01-11T21:44:39.501Z,44.97
2018-01-11T21:47:06.976Z,45.43
2018-01-11T21:49:34.434Z,43.23
2018-01-11T21:52:01.898Z,49.37
2018-01-11T21:54:30.123Z,47.50
2018-01-11T21:56:57.591Z,45.57
2018-01-11T21:59:25.070Z,43.57
2018-01-11T22:01:52.527Z,40.67
2018-01-11T22:04:19.982Z,46.50
2018-01-11T22:06:47.454Z,42.27
2018-01-11T22:09:15.692Z,42.87
2018-01-11T22:11:43.157Z,39.53
2018-01-11T22:14:10.618Z,42.97
2018-01-11T22:16:38.098Z,40.30
2018-01-11T22:19:05.566Z,42.13
2018-01-11T22:21:33.802Z,39.27
2018-01-11T22:24:01.264Z,41.80
2018-01-11T22:26:28.717Z,41.63
2018-01-11T22:28:56.199Z,43.97
2018-01-11T22:31:23.645Z,44.90
2018-01-11T22:33:51.106Z,45.13
2018-01-11T22:36:18.578Z,45.90
2018-01-11T22:38:46.836Z,40.50
2018-01-11T22:41:14.291Z,41.57
2018-01-11T22:43:41.762Z,44.80
2018-01-11T22:46:10.002Z,46.37
2018-01-11T22:48:37.471Z,45.60
2018-01-11T22:51:04.996Z,49.47
2018-01-11T22:53:32.450Z,40.67
2018-01-11T22:55:59.915Z,43.37
2018-01-11T22:58:27.390Z,47.07
2018-01-11T23:00:54.854Z,46.17
2018-01-11T23:03:22.318Z,43.47
2018-01-11T23:05:49.792Z,49.23
2018-01-11T23:08:18.043Z,45.73
2018-01-11T23:10:45.506Z,46.90
2018-01-11T23:13:12.986Z,46.20
2018-01-11T23:15:41.212Z,49.40
2018-01-11T23:18:08.680Z,47.20
2018-01-11T23:20:36.160Z,46.27
2018-01-11T23:23:05.130Z,46.50
2018-01-11T23:25:32.587Z,44.30
2018-01-11T23:28:00.067Z,45.43
2018-01-11T23:30:27.523Z,45.73
2018-01-11T23:32:54.987Z,39.60
2018-01-11T23:35:22.467Z,43.87
2018-01-11T23:37:49.934Z,43.43
2018-01-11T23:40:17.413Z,43.93
2018-01-11T23:42:44.872Z,45.60
2018-01-11T23:45:12.338Z,44.67
2018-01-11T23:47:39.794Z,46.00
2018-01-11T23:50:07.256Z,44.47
2018-01-11T23:52:34.720Z,41.67
2018-01-11T23:55:02.187Z,43.40
2018-01-11T23:57:29.654Z,42.47
2018-01-11T23:59:57.883Z,45.20
